Rossville, Georgia
Current Conditions -  °F | °C
As of 4:53 AM on Friday 28 Nov 2014 (Local Time) from KCHA Reporting Station
Clear Clear  
Wind Chill: 23°   Ceiling: Unl
Heat Index: 30°   Visibility: 10mi
Dew Point: 19°   Wind: 7mph
Humidity: 64%   Direction: 360°N
Pressure: 30.42"   Gusts: NA
Location:  34.98°N, 85.29°W
Report Text: KCHA 280953Z AUTO 36006KT 10SM CLR M01/M07 A3042 RMK AO2 SLP304 T10111072
Loading
Personal Weather Stations






























Interactive Weather Map New forecast layout! Learn more

10-Day Weather Forecast

Advertisements
Track Severe Weather on mobile